Alverton, PA

3:29 AM EDT on August 29, 2016 (GMT -0400)
Near Evergreen Drive-in | | Change Station

Elev 1060 ft 40.12 °N, 79.55 °W | Updated 60 seconds ago

Clear
Clear
66.7 °F
Feels Like 66.7 °F
N
0.0
Wind Variable Wind from SE
Gusts 0.0 mph

Today
High -- | Low -- °F
--% Chance of Precip.
Yesterday
High -- | Low -- °F
Precip. -- in
Pressure 30.20 in
Visibility 5.0 miles
Clouds Clear
Dew Point 66 °F
Humidity 96%
Rainfall 0.00 in
Snow Depth Not available.
6:43 AM 7:53 PM
Waning Crescent, 10% visible
METAR KLBE 290715Z AUTO 00000KT 5SM BR CLR 19/19 A3020 RMK AO2
Pressure 30.20 in
Visibility 5.0 miles
Clouds Clear
Dew Point 66 °F
Humidity 96%
Rainfall 0.00 in
Snow Depth Not available.
6:43 AM 7:53 PM
Waning Crescent, 10% visible
METAR KLBE 290715Z AUTO 00000KT 5SM BR CLR 19/19 A3020 RMK AO2

10-Day Weather Forecast

Almanac

Astronomy

Aug. 29, 2016 Rise Set
Actual Time
Civil Twilight
Nautical Twilight
Astronomical Twilight
Moon
Length of Visible Light
Length of Day
Tomorrow will be .
, % of the Moon is Illuminated

Today's Extremes

State Highs State Lows

Community

WunderPhotos

Upload Photos

1,935,800 photos uploaded!

WunderBlog® & News

Nearby

Air Quality

  Air Quality AQ Index Pollutant
Not available.

Snow Depth

Station Depth Elevation

Earthquake Activity

City Distance Mag. Time & Date
Minimum magnitude displayed is 2.5.

Coastal Water Temperatures

Place Temperature

Stations

Nearby Weather Stations

Station Location Temp. Windchill Dew Point Humidity Wind Precip. Elev Updated Type
                   

Watches & Warnings

There are currently no watches in effect.